sensor_id;sensor_type;location;lat;lon;timestamp;P1;durP1;ratioP1;P2;durP2;ratioP2
1677;SDS011;6034;46.864;15.216;2023-10-19T05:01:54;24.75;;;20.88;;
1677;SDS011;6034;46.864;15.216;2023-10-19T05:04:21;27.73;;;21.08;;
1677;SDS011;6034;46.864;15.216;2023-10-19T05:06:50;29.13;;;22.20;;
1677;SDS011;6034;46.864;15.216;2023-10-19T05:09:17;27.38;;;22.13;;
1677;SDS011;6034;46.864;15.216;2023-10-19T05:11:44;31.38;;;21.73;;
1677;SDS011;6034;46.864;15.216;2023-10-19T05:14:13;24.52;;;20.55;;
1677;SDS011;6034;46.864;15.216;2023-10-19T05:16:41;25.08;;;20.55;;
1677;SDS011;6034;46.864;15.216;2023-10-19T05:19:10;25.92;;;19.77;;
1677;SDS011;6034;46.864;15.216;2023-10-19T05:21:37;25.50;;;19.88;;
1677;SDS011;6034;46.864;15.216;2023-10-19T05:24:05;24.33;;;19.00;;
1677;SDS011;6034;46.864;15.216;2023-10-19T05:26:33;21.83;;;16.85;;
1677;SDS011;6034;46.864;15.216;2023-10-19T05:29:00;22.35;;;17.42;;
1677;SDS011;6034;46.864;15.216;2023-10-19T05:31:27;20.08;;;15.90;;
1677;SDS011;6034;46.864;15.216;2023-10-19T05:33:56;20.85;;;16.80;;
1677;SDS011;6034;46.864;15.216;2023-10-19T05:36:25;24.13;;;18.17;;
1677;SDS011;6034;46.864;15.216;2023-10-19T05:38:52;22.25;;;18.02;;
1677;SDS011;6034;46.864;15.216;2023-10-19T05:41:19;20.00;;;17.15;;
1677;SDS011;6034;46.864;15.216;2023-10-19T05:43:47;24.17;;;17.27;;
1677;SDS011;6034;46.864;15.216;2023-10-19T05:46:14;23.00;;;17.63;;
1677;SDS011;6034;46.864;15.216;2023-10-19T05:48:43;26.05;;;19.17;;
1677;SDS011;6034;46.864;15.216;2023-10-19T05:51:11;22.45;;;17.00;;
1677;SDS011;6034;46.864;15.216;2023-10-19T05:53:41;20.45;;;16.38;;
1677;SDS011;6034;46.864;15.216;2023-10-19T05:56:09;22.38;;;17.40;;
1677;SDS011;6034;46.864;15.216;2023-10-19T05:58:37;23.95;;;17.95;;
1677;SDS011;6034;46.864;15.216;2023-10-19T06:01:04;25.90;;;16.42;;
1677;SDS011;6034;46.864;15.216;2023-10-19T06:03:31;50.00;;;39.83;;
1677;SDS011;6034;46.864;15.216;2023-10-19T06:05:58;32.85;;;27.40;;
1677;SDS011;6034;46.864;15.216;2023-10-19T06:08:25;30.30;;;22.98;;
1677;SDS011;6034;46.864;15.216;2023-10-19T06:10:55;26.63;;;21.58;;
1677;SDS011;6034;46.864;15.216;2023-10-19T06:13:22;27.52;;;20.23;;
1677;SDS011;6034;46.864;15.216;2023-10-19T06:15:51;27.77;;;22.08;;
1677;SDS011;6034;46.864;15.216;2023-10-19T06:18:18;21.65;;;18.00;;
1677;SDS011;6034;46.864;15.216;2023-10-19T06:20:45;30.58;;;22.50;;
1677;SDS011;6034;46.864;15.216;2023-10-19T06:23:13;23.08;;;18.42;;
1677;SDS011;6034;46.864;15.216;2023-10-19T06:25:40;23.60;;;19.17;;
1677;SDS011;6034;46.864;15.216;2023-10-19T06:28:10;25.02;;;19.98;;
1677;SDS011;6034;46.864;15.216;2023-10-19T06:30:37;23.25;;;18.52;;
1677;SDS011;6034;46.864;15.216;2023-10-19T06:33:05;23.10;;;18.38;;
1677;SDS011;6034;46.864;15.216;2023-10-19T06:35:33;23.50;;;20.50;;
1677;SDS011;6034;46.864;15.216;2023-10-19T06:38:02;19.63;;;15.63;;
1677;SDS011;6034;46.864;15.216;2023-10-19T06:40:30;20.23;;;15.80;;
1677;SDS011;6034;46.864;15.216;2023-10-19T06:43:01;27.10;;;17.30;;
1677;SDS011;6034;46.864;15.216;2023-10-19T06:45:32;27.77;;;18.02;;
1677;SDS011;6034;46.864;15.216;2023-10-19T06:48:00;22.90;;;17.45;;
1677;SDS011;6034;46.864;15.216;2023-10-19T06:50:29;21.45;;;16.25;;
1677;SDS011;6034;46.864;15.216;2023-10-19T06:52:56;22.50;;;18.30;;
1677;SDS011;6034;46.864;15.216;2023-10-19T06:55:24;21.88;;;17.10;;
1677;SDS011;6034;46.864;15.216;2023-10-19T06:57:53;24.45;;;19.00;;
1677;SDS011;6034;46.864;15.216;2023-10-19T07:00:22;24.52;;;18.58;;
1677;SDS011;6034;46.864;15.216;2023-10-19T07:02:53;26.38;;;20.65;;
1677;SDS011;6034;46.864;15.216;2023-10-19T07:05:26;23.70;;;19.92;;
1677;SDS011;6034;46.864;15.216;2023-10-19T07:07:56;27.45;;;20.38;;
1677;SDS011;6034;46.864;15.216;2023-10-19T07:10:25;23.85;;;18.98;;
1677;SDS011;6034;46.864;15.216;2023-10-19T07:12:53;28.90;;;21.10;;
1677;SDS011;6034;46.864;15.216;2023-10-19T07:15:21;24.73;;;19.92;;
1677;SDS011;6034;46.864;15.216;2023-10-19T07:17:50;25.45;;;20.85;;
1677;SDS011;6034;46.864;15.216;2023-10-19T07:20:20;23.15;;;17.67;;
1677;SDS011;6034;46.864;15.216;2023-10-19T07:22:57;22.63;;;18.33;;
1677;SDS011;6034;46.864;15.216;2023-10-19T07:25:28;19.73;;;16.75;;
1677;SDS011;6034;46.864;15.216;2023-10-19T07:27:56;23.83;;;18.42;;
1677;SDS011;6034;46.864;15.216;2023-10-19T07:30:25;21.48;;;17.05;;
1677;SDS011;6034;46.864;15.216;2023-10-19T07:32:54;26.40;;;18.00;;
1677;SDS011;6034;46.864;15.216;2023-10-19T07:35:23;20.00;;;17.00;;
1677;SDS011;6034;46.864;15.216;2023-10-19T07:37:51;19.52;;;16.42;;
1677;SDS011;6034;46.864;15.216;2023-10-19T07:40:18;18.48;;;16.30;;
1677;SDS011;6034;46.864;15.216;2023-10-19T07:42:46;20.02;;;16.52;;
1677;SDS011;6034;46.864;15.216;2023-10-19T07:45:14;20.70;;;16.13;;
1677;SDS011;6034;46.864;15.216;2023-10-19T07:47:42;16.52;;;14.13;;
1677;SDS011;6034;46.864;15.216;2023-10-19T07:50:11;18.13;;;16.25;;
1677;SDS011;6034;46.864;15.216;2023-10-19T07:52:41;17.20;;;13.32;;
1677;SDS011;6034;46.864;15.216;2023-10-19T07:55:09;15.70;;;12.48;;
1677;SDS011;6034;46.864;15.216;2023-10-19T07:57:36;16.17;;;14.07;;
1677;SDS011;6034;46.864;15.216;2023-10-19T08:00:07;17.35;;;13.63;;
1677;SDS011;6034;46.864;15.216;2023-10-19T08:02:35;16.55;;;13.95;;
1677;SDS011;6034;46.864;15.216;2023-10-19T08:05:06;18.02;;;13.52;;
1677;SDS011;6034;46.864;15.216;2023-10-19T08:07:35;15.90;;;12.15;;
1677;SDS011;6034;46.864;15.216;2023-10-19T08:10:05;18.02;;;11.80;;
1677;SDS011;6034;46.864;15.216;2023-10-19T08:12:37;13.75;;;12.25;;
1677;SDS011;6034;46.864;15.216;2023-10-19T08:15:06;16.30;;;12.27;;
1677;SDS011;6034;46.864;15.216;2023-10-19T08:17:36;14.93;;;12.77;;
1677;SDS011;6034;46.864;15.216;2023-10-19T08:20:05;16.13;;;14.07;;
1677;SDS011;6034;46.864;15.216;2023-10-19T08:22:36;19.88;;;13.98;;
1677;SDS011;6034;46.864;15.216;2023-10-19T08:25:03;24.13;;;15.02;;
1677;SDS011;6034;46.864;15.216;2023-10-19T08:27:37;19.95;;;16.25;;
1677;SDS011;6034;46.864;15.216;2023-10-19T08:30:05;13.13;;;11.65;;
1677;SDS011;6034;46.864;15.216;2023-10-19T08:32:35;13.20;;;11.27;;
1677;SDS011;6034;46.864;15.216;2023-10-19T08:35:02;14.02;;;11.45;;
1677;SDS011;6034;46.864;15.216;2023-10-19T08:37:31;14.48;;;12.55;;
1677;SDS011;6034;46.864;15.216;2023-10-19T08:40:00;16.77;;;14.48;;
1677;SDS011;6034;46.864;15.216;2023-10-19T08:42:29;13.48;;;11.82;;
1677;SDS011;6034;46.864;15.216;2023-10-19T08:44:56;16.88;;;13.95;;
1677;SDS011;6034;46.864;15.216;2023-10-19T08:47:25;16.17;;;13.13;;
1677;SDS011;6034;46.864;15.216;2023-10-19T08:49:53;13.63;;;10.95;;
1677;SDS011;6034;46.864;15.216;2023-10-19T08:52:20;15.55;;;12.50;;
1677;SDS011;6034;46.864;15.216;2023-10-19T08:54:49;17.15;;;13.85;;
1677;SDS011;6034;46.864;15.216;2023-10-19T08:57:18;15.68;;;12.93;;
1677;SDS011;6034;46.864;15.216;2023-10-19T08:59:45;15.88;;;13.20;;
1677;SDS011;6034;46.864;15.216;2023-10-19T09:02:14;13.70;;;12.00;;
1677;SDS011;6034;46.864;15.216;2023-10-19T09:04:43;15.00;;;13.40;;
1677;SDS011;6034;46.864;15.216;2023-10-19T09:07:13;14.75;;;12.95;;
1677;SDS011;6034;46.864;15.216;2023-10-19T09:09:43;16.77;;;12.65;;
1677;SDS011;6034;46.864;15.216;2023-10-19T09:12:13;16.27;;;14.15;;
1677;SDS011;6034;46.864;15.216;2023-10-19T09:14:41;14.30;;;12.68;;
1677;SDS011;6034;46.864;15.216;2023-10-19T09:17:11;16.33;;;14.20;;
1677;SDS011;6034;46.864;15.216;2023-10-19T09:19:39;14.82;;;13.27;;
1677;SDS011;6034;46.864;15.216;2023-10-19T09:22:07;14.68;;;12.60;;
1677;SDS011;6034;46.864;15.216;2023-10-19T09:24:42;12.38;;;10.98;;
1677;SDS011;6034;46.864;15.216;2023-10-19T09:27:10;13.70;;;10.20;;
1677;SDS011;6034;46.864;15.216;2023-10-19T09:29:38;12.50;;;11.20;;
1677;SDS011;6034;46.864;15.216;2023-10-19T09:32:08;12.85;;;11.40;;
1677;SDS011;6034;46.864;15.216;2023-10-19T09:34:38;12.40;;;11.10;;
1677;SDS011;6034;46.864;15.216;2023-10-19T09:37:09;15.02;;;13.35;;
1677;SDS011;6034;46.864;15.216;2023-10-19T09:39:38;20.50;;;14.85;;
1677;SDS011;6034;46.864;15.216;2023-10-19T09:42:10;18.08;;;16.02;;
1677;SDS011;6034;46.864;15.216;2023-10-19T09:44:43;17.92;;;16.13;;
1677;SDS011;6034;46.864;15.216;2023-10-19T09:47:13;17.35;;;14.05;;
1677;SDS011;6034;46.864;15.216;2023-10-19T09:49:45;15.80;;;14.20;;
1677;SDS011;6034;46.864;15.216;2023-10-19T09:52:15;15.35;;;13.02;;
1677;SDS011;6034;46.864;15.216;2023-10-19T09:54:48;14.95;;;13.35;;
1677;SDS011;6034;46.864;15.216;2023-10-19T09:57:22;14.65;;;13.20;;
1677;SDS011;6034;46.864;15.216;2023-10-19T09:59:59;15.65;;;12.93;;
1677;SDS011;6034;46.864;15.216;2023-10-19T10:02:35;13.38;;;12.00;;
1677;SDS011;6034;46.864;15.216;2023-10-19T10:05:03;14.15;;;11.73;;
1677;SDS011;6034;46.864;15.216;2023-10-19T10:07:31;9.43;;;8.48;;
1677;SDS011;6034;46.864;15.216;2023-10-19T10:09:58;11.43;;;10.32;;
1677;SDS011;6034;46.864;15.216;2023-10-19T10:12:29;10.85;;;9.75;;
1677;SDS011;6034;46.864;15.216;2023-10-19T10:15:02;8.15;;;7.35;;
1677;SDS011;6034;46.864;15.216;2023-10-19T10:17:35;10.02;;;8.30;;
1677;SDS011;6034;46.864;15.216;2023-10-19T10:23:16;15.73;;;13.93;;
1677;SDS011;6034;46.864;15.216;2023-10-19T10:25:46;18.08;;;14.88;;
1677;SDS011;6034;46.864;15.216;2023-10-19T10:28:15;17.08;;;14.55;;
1677;SDS011;6034;46.864;15.216;2023-10-19T10:33:42;16.33;;;14.23;;
1677;SDS011;6034;46.864;15.216;2023-10-19T10:36:13;16.10;;;14.40;;
1677;SDS011;6034;46.864;15.216;2023-10-19T10:38:45;16.20;;;14.45;;
1677;SDS011;6034;46.864;15.216;2023-10-19T10:41:23;14.93;;;13.32;;
1677;SDS011;6034;46.864;15.216;2023-10-19T10:43:53;16.45;;;14.30;;
1677;SDS011;6034;46.864;15.216;2023-10-19T10:46:22;14.15;;;12.75;;
1677;SDS011;6034;46.864;15.216;2023-10-19T10:48:52;15.52;;;13.05;;
1677;SDS011;6034;46.864;15.216;2023-10-19T10:51:20;13.10;;;11.80;;
1677;SDS011;6034;46.864;15.216;2023-10-19T10:53:49;14.10;;;12.00;;
1677;SDS011;6034;46.864;15.216;2023-10-19T10:56:20;15.32;;;13.70;;
1677;SDS011;6034;46.864;15.216;2023-10-19T10:58:49;13.93;;;12.50;;
1677;SDS011;6034;46.864;15.216;2023-10-19T11:01:27;15.35;;;12.52;;
1677;SDS011;6034;46.864;15.216;2023-10-19T11:04:07;15.38;;;11.52;;
1677;SDS011;6034;46.864;15.216;2023-10-19T11:06:48;12.50;;;11.20;;
1677;SDS011;6034;46.864;15.216;2023-10-19T11:09:16;14.38;;;12.88;;
1677;SDS011;6034;46.864;15.216;2023-10-19T11:11:45;13.45;;;12.18;;
1677;SDS011;6034;46.864;15.216;2023-10-19T11:14:17;11.40;;;10.20;;
1677;SDS011;6034;46.864;15.216;2023-10-19T11:16:47;12.13;;;10.93;;
1677;SDS011;6034;46.864;15.216;2023-10-19T11:19:16;13.15;;;11.35;;
1677;SDS011;6034;46.864;15.216;2023-10-19T11:24:29;13.73;;;12.32;;
1677;SDS011;6034;46.864;15.216;2023-10-19T11:27:02;12.98;;;10.27;;
1677;SDS011;6034;46.864;15.216;2023-10-19T11:29:30;13.20;;;11.82;;
1677;SDS011;6034;46.864;15.216;2023-10-19T11:31:57;14.95;;;11.65;;
1677;SDS011;6034;46.864;15.216;2023-10-19T11:34:26;14.23;;;12.40;;
1677;SDS011;6034;46.864;15.216;2023-10-19T11:36:56;14.18;;;12.68;;
1677;SDS011;6034;46.864;15.216;2023-10-19T11:39:25;14.30;;;11.70;;
1677;SDS011;6034;46.864;15.216;2023-10-19T11:41:53;13.80;;;11.88;;
1677;SDS011;6034;46.864;15.216;2023-10-19T11:44:21;16.35;;;12.88;;
1677;SDS011;6034;46.864;15.216;2023-10-19T11:46:48;14.13;;;12.60;;
1677;SDS011;6034;46.864;15.216;2023-10-19T11:49:16;12.50;;;11.25;;
1677;SDS011;6034;46.864;15.216;2023-10-19T11:51:47;12.65;;;11.45;;
1677;SDS011;6034;46.864;15.216;2023-10-19T11:54:14;13.70;;;11.55;;
1677;SDS011;6034;46.864;15.216;2023-10-19T11:56:43;12.88;;;11.25;;
1677;SDS011;6034;46.864;15.216;2023-10-19T11:59:11;13.50;;;10.55;;
1677;SDS011;6034;46.864;15.216;2023-10-19T12:01:39;11.88;;;10.65;;
1677;SDS011;6034;46.864;15.216;2023-10-19T12:04:06;11.88;;;10.60;;
1677;SDS011;6034;46.864;15.216;2023-10-19T12:06:34;13.48;;;11.43;;
1677;SDS011;6034;46.864;15.216;2023-10-19T12:09:03;12.05;;;10.82;;
1677;SDS011;6034;46.864;15.216;2023-10-19T12:11:39;12.32;;;11.00;;
1677;SDS011;6034;46.864;15.216;2023-10-19T12:14:07;11.43;;;10.23;;
1677;SDS011;6034;46.864;15.216;2023-10-19T12:16:37;12.65;;;11.15;;
1677;SDS011;6034;46.864;15.216;2023-10-19T12:19:05;15.13;;;11.43;;
1677;SDS011;6034;46.864;15.216;2023-10-19T12:21:33;10.98;;;9.98;;
1677;SDS011;6034;46.864;15.216;2023-10-19T12:24:04;10.32;;;9.30;;
1677;SDS011;6034;46.864;15.216;2023-10-19T12:26:34;11.90;;;10.70;;
1677;SDS011;6034;46.864;15.216;2023-10-19T12:29:01;13.85;;;11.38;;
1677;SDS011;6034;46.864;15.216;2023-10-19T12:31:32;11.80;;;10.63;;
1677;SDS011;6034;46.864;15.216;2023-10-19T12:34:02;12.15;;;10.95;;
1677;SDS011;6034;46.864;15.216;2023-10-19T12:36:44;12.50;;;10.25;;
1677;SDS011;6034;46.864;15.216;2023-10-19T12:39:24;8.55;;;7.65;;
1677;SDS011;6034;46.864;15.216;2023-10-19T12:42:08;10.15;;;9.02;;
1677;SDS011;6034;46.864;15.216;2023-10-19T12:44:39;7.07;;;6.32;;
1677;SDS011;6034;46.864;15.216;2023-10-19T12:47:09;7.70;;;6.88;;
1677;SDS011;6034;46.864;15.216;2023-10-19T12:49:43;8.20;;;6.10;;
1677;SDS011;6034;46.864;15.216;2023-10-19T12:52:14;7.32;;;6.57;;
1677;SDS011;6034;46.864;15.216;2023-10-19T12:54:47;6.93;;;6.32;;
1677;SDS011;6034;46.864;15.216;2023-10-19T12:57:20;8.15;;;7.43;;
1677;SDS011;6034;46.864;15.216;2023-10-19T12:59:49;7.90;;;6.65;;
1677;SDS011;6034;46.864;15.216;2023-10-19T13:02:18;8.95;;;7.30;;
1677;SDS011;6034;46.864;15.216;2023-10-19T13:04:48;7.82;;;6.75;;
1677;SDS011;6034;46.864;15.216;2023-10-19T13:07:18;7.65;;;6.85;;
1677;SDS011;6034;46.864;15.216;2023-10-19T13:09:54;22.45;;;17.17;;
1677;SDS011;6034;46.864;15.216;2023-10-19T13:12:25;7.32;;;6.63;;
1677;SDS011;6034;46.864;15.216;2023-10-19T13:14:53;5.53;;;4.30;;
1677;SDS011;6034;46.864;15.216;2023-10-19T13:17:22;5.50;;;4.75;;
1677;SDS011;6034;46.864;15.216;2023-10-19T13:19:52;5.88;;;5.30;;
1677;SDS011;6034;46.864;15.216;2023-10-19T13:22:25;6.07;;;5.47;;
1677;SDS011;6034;46.864;15.216;2023-10-19T13:24:56;4.78;;;4.38;;
1677;SDS011;6034;46.864;15.216;2023-10-19T13:27:28;5.35;;;4.45;;
1677;SDS011;6034;46.864;15.216;2023-10-19T13:29:58;6.35;;;5.22;;
1677;SDS011;6034;46.864;15.216;2023-10-19T13:32:28;9.88;;;6.18;;
1677;SDS011;6034;46.864;15.216;2023-10-19T13:34:59;8.73;;;6.47;;
1677;SDS011;6034;46.864;15.216;2023-10-19T13:37:28;6.38;;;5.00;;
1677;SDS011;6034;46.864;15.216;2023-10-19T13:39:59;5.28;;;4.78;;
1677;SDS011;6034;46.864;15.216;2023-10-19T13:42:36;5.30;;;4.80;;
1677;SDS011;6034;46.864;15.216;2023-10-19T13:45:12;8.50;;;6.57;;
1677;SDS011;6034;46.864;15.216;2023-10-19T13:47:41;5.25;;;4.75;;
1677;SDS011;6034;46.864;15.216;2023-10-19T13:50:12;5.35;;;4.85;;
1677;SDS011;6034;46.864;15.216;2023-10-19T13:52:41;6.27;;;5.13;;
1677;SDS011;6034;46.864;15.216;2023-10-19T13:55:12;6.77;;;5.63;;
1677;SDS011;6034;46.864;15.216;2023-10-19T13:57:44;6.63;;;5.83;;
1677;SDS011;6034;46.864;15.216;2023-10-19T14:00:13;7.57;;;4.97;;
1677;SDS011;6034;46.864;15.216;2023-10-19T14:02:49;6.90;;;5.88;;
1677;SDS011;6034;46.864;15.216;2023-10-19T14:05:19;6.78;;;5.82;;
1677;SDS011;6034;46.864;15.216;2023-10-19T14:07:50;5.70;;;5.20;;
1677;SDS011;6034;46.864;15.216;2023-10-19T14:10:23;6.87;;;4.43;;
1677;SDS011;6034;46.864;15.216;2023-10-19T14:12:53;6.97;;;4.70;;
1677;SDS011;6034;46.864;15.216;2023-10-19T14:15:21;7.63;;;6.93;;
1677;SDS011;6034;46.864;15.216;2023-10-19T14:17:50;7.97;;;6.53;;
1677;SDS011;6034;46.864;15.216;2023-10-19T14:20:23;6.27;;;5.67;;
1677;SDS011;6034;46.864;15.216;2023-10-19T14:23:00;9.30;;;7.63;;
1677;SDS011;6034;46.864;15.216;2023-10-19T14:25:31;7.38;;;6.68;;
1677;SDS011;6034;46.864;15.216;2023-10-19T14:28:04;7.30;;;6.60;;
1677;SDS011;6034;46.864;15.216;2023-10-19T14:30:31;7.77;;;5.70;;
1677;SDS011;6034;46.864;15.216;2023-10-19T14:32:59;6.20;;;5.30;;
1677;SDS011;6034;46.864;15.216;2023-10-19T14:35:27;7.70;;;6.90;;
1677;SDS011;6034;46.864;15.216;2023-10-19T14:37:56;9.13;;;6.30;;
1677;SDS011;6034;46.864;15.216;2023-10-19T14:40:26;7.23;;;6.10;;
1677;SDS011;6034;46.864;15.216;2023-10-19T14:42:58;8.07;;;6.67;;
1677;SDS011;6034;46.864;15.216;2023-10-19T14:45:29;7.40;;;6.70;;
1677;SDS011;6034;46.864;15.216;2023-10-19T14:47:58;8.50;;;5.93;;
1677;SDS011;6034;46.864;15.216;2023-10-19T14:50:34;6.90;;;5.67;;
1677;SDS011;6034;46.864;15.216;2023-10-19T14:53:04;6.40;;;5.80;;
1677;SDS011;6034;46.864;15.216;2023-10-19T14:55:38;6.50;;;5.60;;
1677;SDS011;6034;46.864;15.216;2023-10-19T14:58:10;6.47;;;5.87;;
1677;SDS011;6034;46.864;15.216;2023-10-19T15:00:39;8.27;;;7.47;;
1677;SDS011;6034;46.864;15.216;2023-10-19T15:03:09;8.70;;;7.03;;
1677;SDS011;6034;46.864;15.216;2023-10-19T15:05:39;5.93;;;5.13;;
1677;SDS011;6034;46.864;15.216;2023-10-19T15:08:08;4.40;;;4.00;;
1677;SDS011;6034;46.864;15.216;2023-10-19T15:10:39;5.70;;;4.53;;
1677;SDS011;6034;46.864;15.216;2023-10-19T15:13:09;5.70;;;5.20;;
1677;SDS011;6034;46.864;15.216;2023-10-19T15:15:36;5.27;;;4.23;;
1677;SDS011;6034;46.864;15.216;2023-10-19T15:18:03;5.70;;;4.80;;
1677;SDS011;6034;46.864;15.216;2023-10-19T15:20:32;7.67;;;5.63;;
1677;SDS011;6034;46.864;15.216;2023-10-19T15:23:00;5.43;;;4.93;;
1677;SDS011;6034;46.864;15.216;2023-10-19T15:25:27;5.23;;;4.43;;
1677;SDS011;6034;46.864;15.216;2023-10-19T15:27:55;5.63;;;5.13;;
1677;SDS011;6034;46.864;15.216;2023-10-19T15:30:24;5.57;;;5.03;;
1677;SDS011;6034;46.864;15.216;2023-10-19T15:32:52;5.30;;;4.50;;
1677;SDS011;6034;46.864;15.216;2023-10-19T15:35:19;4.80;;;4.30;;
1677;SDS011;6034;46.864;15.216;2023-10-19T15:37:47;6.10;;;5.27;;
1677;SDS011;6034;46.864;15.216;2023-10-19T15:40:15;5.00;;;4.50;;
1677;SDS011;6034;46.864;15.216;2023-10-19T15:42:44;5.90;;;5.33;;
1677;SDS011;6034;46.864;15.216;2023-10-19T15:45:12;4.50;;;4.10;;
1677;SDS011;6034;46.864;15.216;2023-10-19T15:47:45;4.90;;;4.40;;
1677;SDS011;6034;46.864;15.216;2023-10-19T15:50:13;5.63;;;5.03;;
1677;SDS011;6034;46.864;15.216;2023-10-19T15:52:42;7.00;;;5.20;;
1677;SDS011;6034;46.864;15.216;2023-10-19T15:55:10;5.23;;;4.13;;
1677;SDS011;6034;46.864;15.216;2023-10-19T15:57:37;4.97;;;4.37;;
1677;SDS011;6034;46.864;15.216;2023-10-19T16:00:06;4.70;;;3.97;;
1677;SDS011;6034;46.864;15.216;2023-10-19T16:02:38;5.10;;;4.10;;
1677;SDS011;6034;46.864;15.216;2023-10-19T16:05:08;5.47;;;4.60;;
1677;SDS011;6034;46.864;15.216;2023-10-19T16:07:37;5.57;;;4.00;;
1677;SDS011;6034;46.864;15.216;2023-10-19T16:10:05;4.50;;;4.10;;
1677;SDS011;6034;46.864;15.216;2023-10-19T16:12:38;5.30;;;3.97;;
1677;SDS011;6034;46.864;15.216;2023-10-19T16:15:08;4.90;;;3.77;;
1677;SDS011;6034;46.864;15.216;2023-10-19T16:17:37;4.23;;;3.57;;
1677;SDS011;6034;46.864;15.216;2023-10-19T16:20:07;7.20;;;3.77;;
1677;SDS011;6034;46.864;15.216;2023-10-19T16:22:36;2.97;;;2.23;;
1677;SDS011;6034;46.864;15.216;2023-10-19T16:25:04;3.40;;;3.10;;
1677;SDS011;6034;46.864;15.216;2023-10-19T16:27:33;7.20;;;3.07;;
1677;SDS011;6034;46.864;15.216;2023-10-19T16:30:03;5.00;;;4.50;;
1677;SDS011;6034;46.864;15.216;2023-10-19T16:32:37;3.80;;;2.60;;
1677;SDS011;6034;46.864;15.216;2023-10-19T16:35:09;3.37;;;2.63;;
1677;SDS011;6034;46.864;15.216;2023-10-19T16:37:39;3.57;;;2.57;;
1677;SDS011;6034;46.864;15.216;2023-10-19T16:40:08;3.13;;;2.20;;
1677;SDS011;6034;46.864;15.216;2023-10-19T16:42:39;4.23;;;2.60;;
1677;SDS011;6034;46.864;15.216;2023-10-19T16:45:08;4.70;;;3.70;;
1677;SDS011;6034;46.864;15.216;2023-10-19T16:47:37;4.03;;;2.90;;
1677;SDS011;6034;46.864;15.216;2023-10-19T16:50:15;3.90;;;2.70;;
1677;SDS011;6034;46.864;15.216;2023-10-19T16:52:45;3.57;;;3.27;;
1677;SDS011;6034;46.864;15.216;2023-10-19T16:55:15;3.47;;;2.67;;
1677;SDS011;6034;46.864;15.216;2023-10-19T16:57:44;4.57;;;3.30;;
1677;SDS011;6034;46.864;15.216;2023-10-19T17:00:16;3.50;;;3.17;;
1677;SDS011;6034;46.864;15.216;2023-10-19T17:02:45;6.43;;;2.90;;
1677;SDS011;6034;46.864;15.216;2023-10-19T17:05:18;4.23;;;3.83;;
1677;SDS011;6034;46.864;15.216;2023-10-19T17:07:48;4.70;;;3.70;;
1677;SDS011;6034;46.864;15.216;2023-10-19T17:10:17;3.50;;;3.10;;
1677;SDS011;6034;46.864;15.216;2023-10-19T17:12:47;4.07;;;2.90;;
1677;SDS011;6034;46.864;15.216;2023-10-19T17:15:16;3.13;;;2.70;;
1677;SDS011;6034;46.864;15.216;2023-10-19T17:17:45;4.33;;;3.47;;
1677;SDS011;6034;46.864;15.216;2023-10-19T17:20:14;4.40;;;3.00;;
1677;SDS011;6034;46.864;15.216;2023-10-19T17:22:49;3.23;;;2.90;;
1677;SDS011;6034;46.864;15.216;2023-10-19T17:25:18;5.10;;;2.30;;
1677;SDS011;6034;46.864;15.216;2023-10-19T17:27:48;2.97;;;2.10;;
1677;SDS011;6034;46.864;15.216;2023-10-19T17:30:18;3.17;;;2.07;;
1677;SDS011;6034;46.864;15.216;2023-10-19T17:32:48;2.90;;;2.07;;
1677;SDS011;6034;46.864;15.216;2023-10-19T17:35:22;2.60;;;2.10;;
1677;SDS011;6034;46.864;15.216;2023-10-19T17:37:52;3.30;;;1.93;;
1677;SDS011;6034;46.864;15.216;2023-10-19T17:40:24;2.83;;;1.90;;
1677;SDS011;6034;46.864;15.216;2023-10-19T17:42:55;2.30;;;1.77;;
1677;SDS011;6034;46.864;15.216;2023-10-19T17:45:24;4.93;;;2.60;;
1677;SDS011;6034;46.864;15.216;2023-10-19T17:47:54;2.73;;;2.33;;
1677;SDS011;6034;46.864;15.216;2023-10-19T17:50:27;3.67;;;2.60;;
1677;SDS011;6034;46.864;15.216;2023-10-19T17:52:58;3.93;;;2.53;;
1677;SDS011;6034;46.864;15.216;2023-10-19T17:55:32;4.23;;;2.83;;
1677;SDS011;6034;46.864;15.216;2023-10-19T17:58:03;3.57;;;2.50;;
1677;SDS011;6034;46.864;15.216;2023-10-19T18:00:37;4.77;;;3.60;;
1677;SDS011;6034;46.864;15.216;2023-10-19T18:03:07;4.10;;;3.10;;
1677;SDS011;6034;46.864;15.216;2023-10-19T18:05:43;5.57;;;3.27;;
1677;SDS011;6034;46.864;15.216;2023-10-19T18:08:13;5.70;;;4.43;;
1677;SDS011;6034;46.864;15.216;2023-10-19T18:10:45;5.20;;;3.57;;
1677;SDS011;6034;46.864;15.216;2023-10-19T18:13:19;4.00;;;2.90;;
1677;SDS011;6034;46.864;15.216;2023-10-19T18:15:50;4.53;;;2.17;;
1677;SDS011;6034;46.864;15.216;2023-10-19T18:18:19;11.90;;;8.90;;
1677;SDS011;6034;46.864;15.216;2023-10-19T18:20:52;15.93;;;9.27;;
1677;SDS011;6034;46.864;15.216;2023-10-19T18:23:25;7.00;;;5.77;;
1677;SDS011;6034;46.864;15.216;2023-10-19T18:25:55;18.90;;;13.30;;
1677;SDS011;6034;46.864;15.216;2023-10-19T18:28:27;8.07;;;6.20;;
1677;SDS011;6034;46.864;15.216;2023-10-19T18:30:56;4.43;;;3.23;;
1677;SDS011;6034;46.864;15.216;2023-10-19T18:33:27;5.43;;;4.93;;
1677;SDS011;6034;46.864;15.216;2023-10-19T18:36:01;4.30;;;3.30;;
1677;SDS011;6034;46.864;15.216;2023-10-19T18:38:32;6.10;;;3.40;;
1677;SDS011;6034;46.864;15.216;2023-10-19T18:41:02;3.93;;;3.33;;
1677;SDS011;6034;46.864;15.216;2023-10-19T18:43:31;3.53;;;2.77;;
1677;SDS011;6034;46.864;15.216;2023-10-19T18:46:02;3.33;;;2.70;;
1677;SDS011;6034;46.864;15.216;2023-10-19T18:48:30;2.53;;;1.90;;
1677;SDS011;6034;46.864;15.216;2023-10-19T18:51:00;6.60;;;2.83;;
1677;SDS011;6034;46.864;15.216;2023-10-19T18:53:29;2.55;;;1.85;;
1677;SDS011;6034;46.864;15.216;2023-10-19T18:55:59;2.50;;;2.30;;
1677;SDS011;6034;46.864;15.216;2023-10-19T18:58:28;3.43;;;2.60;;
1677;SDS011;6034;46.864;15.216;2023-10-19T19:00:56;3.97;;;3.58;;
1677;SDS011;6034;46.864;15.216;2023-10-19T19:03:27;4.83;;;2.60;;
1677;SDS011;6034;46.864;15.216;2023-10-19T19:05:58;4.20;;;2.90;;
1677;SDS011;6034;46.864;15.216;2023-10-19T19:08:32;4.53;;;3.00;;
1677;SDS011;6034;46.864;15.216;2023-10-19T19:11:07;3.90;;;2.70;;
1677;SDS011;6034;46.864;15.216;2023-10-19T19:13:38;3.00;;;2.60;;
1677;SDS011;6034;46.864;15.216;2023-10-19T19:16:07;3.23;;;2.33;;
1677;SDS011;6034;46.864;15.216;2023-10-19T19:18:37;3.30;;;2.43;;
1677;SDS011;6034;46.864;15.216;2023-10-19T19:21:09;4.83;;;2.40;;
1677;SDS011;6034;46.864;15.216;2023-10-19T19:23:39;2.90;;;2.17;;
1677;SDS011;6034;46.864;15.216;2023-10-19T19:26:07;2.57;;;2.20;;
1677;SDS011;6034;46.864;15.216;2023-10-19T19:28:36;4.05;;;2.17;;
1677;SDS011;6034;46.864;15.216;2023-10-19T19:31:12;2.88;;;2.20;;
1677;SDS011;6034;46.864;15.216;2023-10-19T19:33:42;4.40;;;2.33;;
1677;SDS011;6034;46.864;15.216;2023-10-19T19:36:13;3.70;;;2.72;;
1677;SDS011;6034;46.864;15.216;2023-10-19T19:38:44;2.90;;;2.60;;
1677;SDS011;6034;46.864;15.216;2023-10-19T19:41:15;2.60;;;2.00;;
1677;SDS011;6034;46.864;15.216;2023-10-19T19:43:44;3.10;;;2.35;;
1677;SDS011;6034;46.864;15.216;2023-10-19T19:46:12;3.43;;;2.60;;
1677;SDS011;6034;46.864;15.216;2023-10-19T19:48:43;3.97;;;2.92;;
1677;SDS011;6034;46.864;15.216;2023-10-19T19:51:15;4.28;;;3.50;;
1677;SDS011;6034;46.864;15.216;2023-10-19T19:53:43;3.55;;;2.72;;
1677;SDS011;6034;46.864;15.216;2023-10-19T19:56:15;2.75;;;2.45;;
1677;SDS011;6034;46.864;15.216;2023-10-19T19:58:44;2.90;;;2.47;;
1677;SDS011;6034;46.864;15.216;2023-10-19T20:01:13;3.67;;;2.60;;
1677;SDS011;6034;46.864;15.216;2023-10-19T20:03:41;6.97;;;2.75;;
1677;SDS011;6034;46.864;15.216;2023-10-19T20:06:09;4.40;;;2.85;;
1677;SDS011;6034;46.864;15.216;2023-10-19T20:08:41;2.80;;;2.35;;
1677;SDS011;6034;46.864;15.216;2023-10-19T20:11:16;4.30;;;2.40;;
1677;SDS011;6034;46.864;15.216;2023-10-19T20:13:45;4.20;;;2.27;;